sensor_id;sensor_type;location;lat;lon;timestamp;pressure;altitude;pressure_sealevel;temperature;humidity
20656;BME280;10487;53.320;8.672;2023-04-06T00:01:11;101757.91;;;0.06;45.23
20656;BME280;10487;53.320;8.672;2023-04-06T00:04:13;101751.84;;;0.04;45.04
20656;BME280;10487;53.320;8.672;2023-04-06T00:07:14;101744.00;;;0.01;45.13
20656;BME280;10487;53.320;8.672;2023-04-06T00:10:16;101750.19;;;-0.03;45.23
20656;BME280;10487;53.320;8.672;2023-04-06T00:13:18;101744.09;;;-0.05;45.32
20656;BME280;10487;53.320;8.672;2023-04-06T00:16:20;101739.78;;;-0.07;45.27
20656;BME280;10487;53.320;8.672;2023-04-06T00:19:25;101733.69;;;-0.09;45.42
20656;BME280;10487;53.320;8.672;2023-04-06T00:22:26;101729.34;;;-0.13;45.20
20656;BME280;10487;53.320;8.672;2023-04-06T00:25:28;101727.63;;;-0.14;45.15
20656;BME280;10487;53.320;8.672;2023-04-06T00:28:29;101727.66;;;-0.17;45.27
20656;BME280;10487;53.320;8.672;2023-04-06T00:31:31;101723.31;;;-0.20;45.34
20656;BME280;10487;53.320;8.672;2023-04-06T00:34:33;101720.75;;;-0.23;45.43
20656;BME280;10487;53.320;8.672;2023-04-06T00:37:34;101715.53;;;-0.26;45.43
20656;BME280;10487;53.320;8.672;2023-04-06T00:40:36;101705.97;;;-0.30;45.21
20656;BME280;10487;53.320;8.672;2023-04-06T00:43:38;101710.44;;;-0.36;45.39
20656;BME280;10487;53.320;8.672;2023-04-06T00:46:39;101706.13;;;-0.39;45.48
20656;BME280;10487;53.320;8.672;2023-04-06T00:49:41;101701.78;;;-0.42;45.32
20656;BME280;10487;53.320;8.672;2023-04-06T00:52:43;101703.66;;;-0.51;45.60
20656;BME280;10487;53.320;8.672;2023-04-06T00:55:44;101699.34;;;-0.58;45.62
20656;BME280;10487;53.320;8.672;2023-04-06T00:58:46;101695.88;;;-0.60;45.68
20656;BME280;10487;53.320;8.672;2023-04-06T01:01:48;101692.38;;;-0.61;45.61
20656;BME280;10487;53.320;8.672;2023-04-06T01:04:49;101694.19;;;-0.63;45.66
20656;BME280;10487;53.320;8.672;2023-04-06T01:07:51;101685.50;;;-0.66;45.54
20656;BME280;10487;53.320;8.672;2023-04-06T01:10:52;101684.63;;;-0.67;45.51
20656;BME280;10487;53.320;8.672;2023-04-06T01:13:54;101682.91;;;-0.69;45.72
20656;BME280;10487;53.320;8.672;2023-04-06T01:16:58;101680.28;;;-0.71;45.74
20656;BME280;10487;53.320;8.672;2023-04-06T01:19:59;101682.09;;;-0.74;45.56
20656;BME280;10487;53.320;8.672;2023-04-06T01:23:01;101681.25;;;-0.76;45.77
20656;BME280;10487;53.320;8.672;2023-04-06T01:26:03;101670.84;;;-0.81;45.69
20656;BME280;10487;53.320;8.672;2023-04-06T01:29:05;101670.88;;;-0.84;45.78
20656;BME280;10487;53.320;8.672;2023-04-06T01:32:07;101675.25;;;-0.86;45.67
20656;BME280;10487;53.320;8.672;2023-04-06T01:35:09;101675.25;;;-0.87;45.72
20656;BME280;10487;53.320;8.672;2023-04-06T01:38:11;101670.06;;;-0.89;45.88
20656;BME280;10487;53.320;8.672;2023-04-06T01:41:12;101671.81;;;-0.91;45.78
20656;BME280;10487;53.320;8.672;2023-04-06T01:44:17;101670.09;;;-0.93;45.80
20656;BME280;10487;53.320;8.672;2023-04-06T01:47:22;101664.91;;;-0.96;45.69
20656;BME280;10487;53.320;8.672;2023-04-06T01:50:24;101663.19;;;-1.00;45.83
20656;BME280;10487;53.320;8.672;2023-04-06T01:53:25;101661.50;;;-1.04;45.91
20656;BME280;10487;53.320;8.672;2023-04-06T01:56:27;101661.53;;;-1.08;45.91
20656;BME280;10487;53.320;8.672;2023-04-06T01:59:29;101647.56;;;-1.10;45.89
20656;BME280;10487;53.320;8.672;2023-04-06T02:02:30;101645.00;;;-1.11;46.16
20656;BME280;10487;53.320;8.672;2023-04-06T02:05:33;101639.75;;;-1.13;45.79
20656;BME280;10487;53.320;8.672;2023-04-06T02:08:39;101639.81;;;-1.16;46.01
20656;BME280;10487;53.320;8.672;2023-04-06T02:11:40;101640.72;;;-1.20;45.94
20656;BME280;10487;53.320;8.672;2023-04-06T02:14:42;101637.28;;;-1.23;46.01
20656;BME280;10487;53.320;8.672;2023-04-06T02:17:44;101637.28;;;-1.25;46.10
20656;BME280;10487;53.320;8.672;2023-04-06T02:20:46;101630.31;;;-1.26;46.13
20656;BME280;10487;53.320;8.672;2023-04-06T02:23:47;101630.31;;;-1.26;46.07
20656;BME280;10487;53.320;8.672;2023-04-06T02:26:50;101634.69;;;-1.28;46.11
20656;BME280;10487;53.320;8.672;2023-04-06T02:29:52;101633.84;;;-1.30;45.73
20656;BME280;10487;53.320;8.672;2023-04-06T02:32:53;101636.47;;;-1.31;46.07
20656;BME280;10487;53.320;8.672;2023-04-06T02:35:55;101635.63;;;-1.33;46.12
20656;BME280;10487;53.320;8.672;2023-04-06T02:38:57;101638.28;;;-1.36;46.21
20656;BME280;10487;53.320;8.672;2023-04-06T02:41:59;101625.22;;;-1.39;46.05
20656;BME280;10487;53.320;8.672;2023-04-06T02:45:01;101627.84;;;-1.39;46.39
20656;BME280;10487;53.320;8.672;2023-04-06T02:48:03;101622.63;;;-1.42;46.18
20656;BME280;10487;53.320;8.672;2023-04-06T02:51:05;101620.94;;;-1.46;45.97
20656;BME280;10487;53.320;8.672;2023-04-06T02:54:07;101614.84;;;-1.50;46.50
20656;BME280;10487;53.320;8.672;2023-04-06T02:57:08;101617.53;;;-1.53;46.10
20656;BME280;10487;53.320;8.672;2023-04-06T03:00:11;101621.88;;;-1.55;46.24
20656;BME280;10487;53.320;8.672;2023-04-06T03:03:13;101618.41;;;-1.57;46.26
20656;BME280;10487;53.320;8.672;2023-04-06T03:06:15;101618.44;;;-1.58;46.36
20656;BME280;10487;53.320;8.672;2023-04-06T03:09:16;101623.69;;;-1.58;46.33
20656;BME280;10487;53.320;8.672;2023-04-06T03:12:18;101615.81;;;-1.58;46.38
20656;BME280;10487;53.320;8.672;2023-04-06T03:15:20;101617.53;;;-1.57;46.56
20656;BME280;10487;53.320;8.672;2023-04-06T03:18:23;101614.00;;;-1.50;46.48
20656;BME280;10487;53.320;8.672;2023-04-06T03:21:25;101614.72;;;-1.38;46.43
20656;BME280;10487;53.320;8.672;2023-04-06T03:24:26;101618.22;;;-1.39;46.40
20656;BME280;10487;53.320;8.672;2023-04-06T03:27:28;101618.25;;;-1.42;46.35
20656;BME280;10487;53.320;8.672;2023-04-06T03:30:30;101617.44;;;-1.47;46.33
20656;BME280;10487;53.320;8.672;2023-04-06T03:33:32;101610.50;;;-1.52;46.49
20656;BME280;10487;53.320;8.672;2023-04-06T03:36:34;101617.53;;;-1.57;46.48
20656;BME280;10487;53.320;8.672;2023-04-06T03:39:36;101622.84;;;-1.63;46.75
20656;BME280;10487;53.320;8.672;2023-04-06T03:42:38;101619.38;;;-1.65;46.61
20656;BME280;10487;53.320;8.672;2023-04-06T03:45:39;101617.66;;;-1.68;46.41
20656;BME280;10487;53.320;8.672;2023-04-06T03:48:41;101621.16;;;-1.69;46.87
20656;BME280;10487;53.320;8.672;2023-04-06T03:51:42;101610.75;;;-1.74;46.78
20656;BME280;10487;53.320;8.672;2023-04-06T03:54:44;101605.53;;;-1.77;46.57
20656;BME280;10487;53.320;8.672;2023-04-06T03:57:46;101615.19;;;-1.80;46.58
20656;BME280;10487;53.320;8.672;2023-04-06T04:00:47;101611.72;;;-1.85;46.77
20656;BME280;10487;53.320;8.672;2023-04-06T04:03:49;101612.63;;;-1.89;47.12
20656;BME280;10487;53.320;8.672;2023-04-06T04:06:52;101619.63;;;-1.94;46.96
20656;BME280;10487;53.320;8.672;2023-04-06T04:09:53;101611.84;;;-1.99;46.86
20656;BME280;10487;53.320;8.672;2023-04-06T04:12:55;101617.97;;;-2.04;47.07
20656;BME280;10487;53.320;8.672;2023-04-06T04:15:57;101612.78;;;-2.09;46.80
20656;BME280;10487;53.320;8.672;2023-04-06T04:18:59;101613.69;;;-2.14;47.07
20656;BME280;10487;53.320;8.672;2023-04-06T04:22:00;101620.72;;;-2.21;46.76
20656;BME280;10487;53.320;8.672;2023-04-06T04:25:05;101611.19;;;-2.28;46.86
20656;BME280;10487;53.320;8.672;2023-04-06T04:28:07;101621.69;;;-2.32;47.12
20656;BME280;10487;53.320;8.672;2023-04-06T04:31:09;101611.22;;;-2.34;47.15
20656;BME280;10487;53.320;8.672;2023-04-06T04:34:10;101618.19;;;-2.31;47.32
20656;BME280;10487;53.320;8.672;2023-04-06T04:37:12;101617.31;;;-2.32;47.11
20656;BME280;10487;53.320;8.672;2023-04-06T04:40:13;101619.94;;;-2.32;46.89
20656;BME280;10487;53.320;8.672;2023-04-06T04:43:15;101616.41;;;-2.29;46.82
20656;BME280;10487;53.320;8.672;2023-04-06T04:46:17;101614.72;;;-2.30;46.76
20656;BME280;10487;53.320;8.672;2023-04-06T04:49:19;101613.84;;;-2.31;47.01
20656;BME280;10487;53.320;8.672;2023-04-06T04:52:20;101612.09;;;-2.33;46.98
20656;BME280;10487;53.320;8.672;2023-04-06T04:55:22;101611.25;;;-2.32;47.15
20656;BME280;10487;53.320;8.672;2023-04-06T04:58:24;101610.34;;;-2.31;46.86
20656;BME280;10487;53.320;8.672;2023-04-06T05:01:25;101620.78;;;-2.28;47.21
20656;BME280;10487;53.320;8.672;2023-04-06T05:04:27;101621.66;;;-2.25;47.10
20656;BME280;10487;53.320;8.672;2023-04-06T05:07:28;101614.63;;;-2.21;47.02
20656;BME280;10487;53.320;8.672;2023-04-06T05:10:30;101612.84;;;-2.15;46.91
20656;BME280;10487;53.320;8.672;2023-04-06T05:13:32;101615.44;;;-2.10;46.96
20656;BME280;10487;53.320;8.672;2023-04-06T05:16:33;101613.63;;;-2.04;47.02
20656;BME280;10487;53.320;8.672;2023-04-06T05:19:35;101612.69;;;-2.00;47.16
20656;BME280;10487;53.320;8.672;2023-04-06T05:22:37;101617.03;;;-1.94;46.94
20656;BME280;10487;53.320;8.672;2023-04-06T05:25:38;101619.59;;;-1.88;47.23
20656;BME280;10487;53.320;8.672;2023-04-06T05:28:40;101617.78;;;-1.80;47.18
20656;BME280;10487;53.320;8.672;2023-04-06T05:31:43;101615.03;;;-1.66;47.11
20656;BME280;10487;53.320;8.672;2023-04-06T05:34:45;101612.28;;;-1.54;46.88
20656;BME280;10487;53.320;8.672;2023-04-06T05:37:47;101615.66;;;-1.43;47.07
20656;BME280;10487;53.320;8.672;2023-04-06T05:40:48;101606.81;;;-1.32;47.04
20656;BME280;10487;53.320;8.672;2023-04-06T05:43:50;101612.75;;;-1.18;46.99
20656;BME280;10487;53.320;8.672;2023-04-06T05:46:51;101605.59;;;-1.03;46.77
20656;BME280;10487;53.320;8.672;2023-04-06T05:49:54;101606.31;;;-0.91;46.83
20656;BME280;10487;53.320;8.672;2023-04-06T05:52:55;101600.03;;;-0.79;46.71
20656;BME280;10487;53.320;8.672;2023-04-06T05:56:00;101599.88;;;-0.67;46.64
20656;BME280;10487;53.320;8.672;2023-04-06T05:59:02;101606.69;;;-0.56;46.75
20656;BME280;10487;53.320;8.672;2023-04-06T06:02:03;101595.13;;;-0.43;46.51
20656;BME280;10487;53.320;8.672;2023-04-06T06:05:05;101602.75;;;-0.26;46.69
20656;BME280;10487;53.320;8.672;2023-04-06T06:08:07;101601.63;;;-0.10;46.48
20656;BME280;10487;53.320;8.672;2023-04-06T06:11:09;101603.13;;;0.05;46.68
20656;BME280;10487;53.320;8.672;2023-04-06T06:14:11;101599.41;;;0.18;46.47
20656;BME280;10487;53.320;8.672;2023-04-06T06:17:12;101591.31;;;0.29;46.68
20656;BME280;10487;53.320;8.672;2023-04-06T06:20:16;101591.97;;;0.41;46.63
20656;BME280;10487;53.320;8.672;2023-04-06T06:23:18;101589.25;;;0.47;46.78
20656;BME280;10487;53.320;8.672;2023-04-06T06:26:19;101587.41;;;0.51;46.42
20656;BME280;10487;53.320;8.672;2023-04-06T06:29:21;101589.88;;;0.58;46.43
20656;BME280;10487;53.320;8.672;2023-04-06T06:32:25;101594.94;;;0.69;46.52
20656;BME280;10487;53.320;8.672;2023-04-06T06:35:27;101590.41;;;0.77;46.62
20656;BME280;10487;53.320;8.672;2023-04-06T06:38:29;101587.69;;;0.81;46.49
20656;BME280;10487;53.320;8.672;2023-04-06T06:41:30;101589.34;;;0.87;46.58
20656;BME280;10487;53.320;8.672;2023-04-06T06:44:32;101585.75;;;0.93;46.51
20656;BME280;10487;53.320;8.672;2023-04-06T06:47:34;101592.59;;;0.98;46.41
20656;BME280;10487;53.320;8.672;2023-04-06T06:50:36;101592.44;;;1.06;46.83
20656;BME280;10487;53.320;8.672;2023-04-06T06:53:37;101586.97;;;1.16;46.59
20656;BME280;10487;53.320;8.672;2023-04-06T06:56:39;101584.13;;;1.25;46.50
20656;BME280;10487;53.320;8.672;2023-04-06T06:59:41;101586.53;;;1.36;46.83
20656;BME280;10487;53.320;8.672;2023-04-06T07:02:42;101585.47;;;1.44;46.32
20656;BME280;10487;53.320;8.672;2023-04-06T07:05:48;101581.81;;;1.51;46.60
20656;BME280;10487;53.320;8.672;2023-04-06T07:08:54;101577.13;;;1.63;46.72
20656;BME280;10487;53.320;8.672;2023-04-06T07:11:56;101571.63;;;1.75;46.67
20656;BME280;10487;53.320;8.672;2023-04-06T07:14:58;101568.69;;;1.87;46.74
20656;BME280;10487;53.320;8.672;2023-04-06T07:17:59;101577.16;;;2.32;46.53
20656;BME280;10487;53.320;8.672;2023-04-06T07:21:01;101574.53;;;2.64;46.73
20656;BME280;10487;53.320;8.672;2023-04-06T07:24:02;101570.47;;;2.81;46.38
20656;BME280;10487;53.320;8.672;2023-04-06T07:27:04;101567.38;;;2.98;46.53
20656;BME280;10487;53.320;8.672;2023-04-06T07:30:06;101573.03;;;3.14;46.29
20656;BME280;10487;53.320;8.672;2023-04-06T07:33:08;101574.41;;;3.28;46.34
20656;BME280;10487;53.320;8.672;2023-04-06T07:36:10;101568.78;;;3.39;45.99
20656;BME280;10487;53.320;8.672;2023-04-06T07:39:12;101565.63;;;3.56;46.33
20656;BME280;10487;53.320;8.672;2023-04-06T07:42:13;101559.03;;;3.69;46.14
20656;BME280;10487;53.320;8.672;2023-04-06T07:45:15;101556.00;;;3.81;46.14
20656;BME280;10487;53.320;8.672;2023-04-06T07:48:17;101554.75;;;3.92;46.10
20656;BME280;10487;53.320;8.672;2023-04-06T07:51:19;101555.34;;;4.00;46.29
20656;BME280;10487;53.320;8.672;2023-04-06T07:54:21;101557.72;;;4.08;46.14
20656;BME280;10487;53.320;8.672;2023-04-06T07:57:22;101552.22;;;4.14;46.04
20656;BME280;10487;53.320;8.672;2023-04-06T08:00:24;101550.38;;;4.18;46.20
20656;BME280;10487;53.320;8.672;2023-04-06T08:03:26;101554.50;;;4.25;46.24
20656;BME280;10487;53.320;8.672;2023-04-06T08:06:28;101552.50;;;4.31;46.09
20656;BME280;10487;53.320;8.672;2023-04-06T08:09:30;101548.78;;;4.37;45.87
20656;BME280;10487;53.320;8.672;2023-04-06T08:12:32;101545.13;;;4.41;45.98
20656;BME280;10487;53.320;8.672;2023-04-06T08:15:35;101546.69;;;4.46;45.92
20656;BME280;10487;53.320;8.672;2023-04-06T08:18:36;101537.69;;;4.52;45.88
20656;BME280;10487;53.320;8.672;2023-04-06T08:21:38;101541.03;;;4.57;45.82
20656;BME280;10487;53.320;8.672;2023-04-06T08:24:41;101538.19;;;4.61;45.89
20656;BME280;10487;53.320;8.672;2023-04-06T08:27:43;101539.81;;;4.65;45.84
20656;BME280;10487;53.320;8.672;2023-04-06T08:30:44;101545.84;;;4.69;45.87
20656;BME280;10487;53.320;8.672;2023-04-06T08:33:46;101534.03;;;4.79;45.77
20656;BME280;10487;53.320;8.672;2023-04-06T08:36:48;101535.50;;;4.86;45.56
20656;BME280;10487;53.320;8.672;2023-04-06T08:39:49;101529.84;;;4.97;45.65
20656;BME280;10487;53.320;8.672;2023-04-06T08:42:56;101532.13;;;5.06;45.43
20656;BME280;10487;53.320;8.672;2023-04-06T08:45:58;101531.66;;;5.18;45.49
20656;BME280;10487;53.320;8.672;2023-04-06T08:49:01;101525.97;;;5.28;45.32
20656;BME280;10487;53.320;8.672;2023-04-06T08:52:08;101523.72;;;5.39;45.35
20656;BME280;10487;53.320;8.672;2023-04-06T08:55:11;101525.91;;;5.52;45.28
20656;BME280;10487;53.320;8.672;2023-04-06T08:58:13;101523.63;;;5.64;45.29
20656;BME280;10487;53.320;8.672;2023-04-06T09:01:28;101527.59;;;5.74;45.11
20656;BME280;10487;53.320;8.672;2023-04-06T09:04:32;101523.72;;;5.83;45.13
20656;BME280;10487;53.320;8.672;2023-04-06T09:07:35;101524.41;;;5.88;44.82
20656;BME280;10487;53.320;8.672;2023-04-06T09:10:40;101525.06;;;5.93;44.94
20656;BME280;10487;53.320;8.672;2023-04-06T09:13:47;101520.50;;;5.96;44.84
20656;BME280;10487;53.320;8.672;2023-04-06T09:16:49;101517.66;;;6.01;44.86
20656;BME280;10487;53.320;8.672;2023-04-06T09:19:51;101525.34;;;6.07;44.81
20656;BME280;10487;53.320;8.672;2023-04-06T09:22:53;101523.00;;;6.20;44.92
20656;BME280;10487;53.320;8.672;2023-04-06T09:29:21;101524.19;;;6.53;44.68
20656;BME280;10487;53.320;8.672;2023-04-06T09:32:23;101526.22;;;6.68;44.58
20656;BME280;10487;53.320;8.672;2023-04-06T09:35:25;101515.03;;;6.80;44.68
20656;BME280;10487;53.320;8.672;2023-04-06T09:38:31;101520.63;;;6.93;44.56
20656;BME280;10487;53.320;8.672;2023-04-06T09:41:35;101510.22;;;7.07;44.50
20656;BME280;10487;53.320;8.672;2023-04-06T09:44:36;101515.47;;;7.27;44.67
20656;BME280;10487;53.320;8.672;2023-04-06T09:47:40;101506.31;;;7.51;44.40
20656;BME280;10487;53.320;8.672;2023-04-06T09:50:44;101512.41;;;7.70;44.27
20656;BME280;10487;53.320;8.672;2023-04-06T09:53:48;101510.00;;;7.83;44.09
20656;BME280;10487;53.320;8.672;2023-04-06T10:00:07;101510.53;;;8.08;43.97
20656;BME280;10487;53.320;8.672;2023-04-06T10:03:40;101512.31;;;8.25;43.88
20656;BME280;10487;53.320;8.672;2023-04-06T10:06:47;101507.56;;;8.31;43.92
20656;BME280;10487;53.320;8.672;2023-04-06T10:09:54;101509.72;;;8.40;43.78
20656;BME280;10487;53.320;8.672;2023-04-06T10:12:56;101500.56;;;8.46;43.72
20656;BME280;10487;53.320;8.672;2023-04-06T10:16:00;101502.81;;;8.53;43.63
20656;BME280;10487;53.320;8.672;2023-04-06T10:19:25;101496.38;;;8.57;43.56
20656;BME280;10487;53.320;8.672;2023-04-06T10:22:39;101500.00;;;8.72;43.57
20656;BME280;10487;53.320;8.672;2023-04-06T10:25:57;101496.09;;;8.95;43.43
20656;BME280;10487;53.320;8.672;2023-04-06T10:29:03;101497.84;;;9.11;43.23
20656;BME280;10487;53.320;8.672;2023-04-06T10:32:05;101495.53;;;9.21;43.21
20656;BME280;10487;53.320;8.672;2023-04-06T10:35:07;101503.09;;;9.28;43.23
20656;BME280;10487;53.320;8.672;2023-04-06T10:38:09;101499.50;;;9.45;43.12
20656;BME280;10487;53.320;8.672;2023-04-06T10:41:11;101493.28;;;9.60;42.95
20656;BME280;10487;53.320;8.672;2023-04-06T10:44:25;101491.72;;;9.72;43.00
20656;BME280;10487;53.320;8.672;2023-04-06T10:47:27;101492.16;;;9.94;42.95
20656;BME280;10487;53.320;8.672;2023-04-06T10:50:29;101493.91;;;10.09;42.81
20656;BME280;10487;53.320;8.672;2023-04-06T10:53:33;101490.16;;;10.27;43.08
20656;BME280;10487;53.320;8.672;2023-04-06T10:56:36;101495.50;;;10.41;42.80
20656;BME280;10487;53.320;8.672;2023-04-06T10:59:42;101477.13;;;10.51;42.80
20656;BME280;10487;53.320;8.672;2023-04-06T11:02:43;101483.91;;;10.57;42.72
20656;BME280;10487;53.320;8.672;2023-04-06T11:05:49;101478.97;;;10.65;42.71
20656;BME280;10487;53.320;8.672;2023-04-06T11:08:51;101481.72;;;10.77;42.72
20656;BME280;10487;53.320;8.672;2023-04-06T11:11:53;101468.66;;;10.87;42.49
20656;BME280;10487;53.320;8.672;2023-04-06T11:15:03;101466.63;;;10.90;42.52
20656;BME280;10487;53.320;8.672;2023-04-06T11:18:07;101466.53;;;10.92;42.51
20656;BME280;10487;53.320;8.672;2023-04-06T11:21:09;101471.28;;;11.01;42.70
20656;BME280;10487;53.320;8.672;2023-04-06T11:24:12;101472.72;;;11.06;42.34
20656;BME280;10487;53.320;8.672;2023-04-06T11:27:14;101462.53;;;10.99;42.41
20656;BME280;10487;53.320;8.672;2023-04-06T11:30:17;101461.56;;;11.00;42.46
20656;BME280;10487;53.320;8.672;2023-04-06T11:33:22;101458.13;;;11.12;42.27
20656;BME280;10487;53.320;8.672;2023-04-06T11:36:27;101449.59;;;11.19;42.13
20656;BME280;10487;53.320;8.672;2023-04-06T11:39:32;101444.41;;;11.31;42.40
20656;BME280;10487;53.320;8.672;2023-04-06T11:42:38;101449.47;;;11.48;42.08
20656;BME280;10487;53.320;8.672;2023-04-06T11:45:43;101445.94;;;11.61;42.20
20656;BME280;10487;53.320;8.672;2023-04-06T11:48:46;101441.91;;;11.68;41.94
20656;BME280;10487;53.320;8.672;2023-04-06T11:51:47;101437.94;;;11.74;41.92
20656;BME280;10487;53.320;8.672;2023-04-06T11:54:51;101445.66;;;11.78;41.98
20656;BME280;10487;53.320;8.672;2023-04-06T11:57:53;101437.19;;;11.84;42.13
20656;BME280;10487;53.320;8.672;2023-04-06T12:01:03;101449.22;;;11.92;41.96
20656;BME280;10487;53.320;8.672;2023-04-06T12:04:04;101443.88;;;11.92;41.70
20656;BME280;10487;53.320;8.672;2023-04-06T12:07:08;101436.41;;;11.97;41.70
20656;BME280;10487;53.320;8.672;2023-04-06T12:10:10;101432.13;;;12.07;41.80
20656;BME280;10487;53.320;8.672;2023-04-06T12:13:12;101432.97;;;12.20;41.67
20656;BME280;10487;53.320;8.672;2023-04-06T12:16:13;101421.84;;;12.26;41.47
20656;BME280;10487;53.320;8.672;2023-04-06T12:19:16;101425.06;;;12.31;41.34
20656;BME280;10487;53.320;8.672;2023-04-06T12:22:17;101419.72;;;12.31;41.47
20656;BME280;10487;53.320;8.672;2023-04-06T12:25:19;101417.56;;;12.23;41.40
20656;BME280;10487;53.320;8.672;2023-04-06T12:28:21;101427.19;;;12.26;41.37
20656;BME280;10487;53.320;8.672;2023-04-06T12:31:27;101409.75;;;12.20;41.42
20656;BME280;10487;53.320;8.672;2023-04-06T12:34:28;101403.53;;;12.20;41.40
20656;BME280;10487;53.320;8.672;2023-04-06T12:37:30;101402.91;;;12.16;41.13
20656;BME280;10487;53.320;8.672;2023-04-06T12:40:36;101399.03;;;12.20;41.43
20656;BME280;10487;53.320;8.672;2023-04-06T12:43:42;101400.78;;;12.21;41.29
20656;BME280;10487;53.320;8.672;2023-04-06T12:46:44;101401.59;;;12.22;41.24
20656;BME280;10487;53.320;8.672;2023-04-06T12:49:46;101394.03;;;12.16;40.88
20656;BME280;10487;53.320;8.672;2023-04-06T12:52:48;101403.75;;;12.17;40.79
20656;BME280;10487;53.320;8.672;2023-04-06T12:55:50;101398.72;;;12.25;40.77
20656;BME280;10487;53.320;8.672;2023-04-06T12:58:51;101392.28;;;12.40;41.02
20656;BME280;10487;53.320;8.672;2023-04-06T13:01:53;101392.09;;;12.56;41.05
20656;BME280;10487;53.320;8.672;2023-04-06T13:04:55;101389.38;;;12.68;40.81
20656;BME280;10487;53.320;8.672;2023-04-06T13:07:57;101385.50;;;12.72;40.83
20656;BME280;10487;53.320;8.672;2023-04-06T13:10:58;101384.09;;;12.79;40.84
20656;BME280;10487;53.320;8.672;2023-04-06T13:14:00;101389.09;;;12.84;40.59
20656;BME280;10487;53.320;8.672;2023-04-06T13:17:01;101386.69;;;12.81;40.14
20656;BME280;10487;53.320;8.672;2023-04-06T13:20:03;101382.09;;;12.70;40.52
20656;BME280;10487;53.320;8.672;2023-04-06T13:23:05;101375.69;;;12.60;40.21
20656;BME280;10487;53.320;8.672;2023-04-06T13:26:07;101372.69;;;12.52;40.39
20656;BME280;10487;53.320;8.672;2023-04-06T13:29:09;101374.72;;;12.48;40.49
20656;BME280;10487;53.320;8.672;2023-04-06T13:32:10;101365.53;;;12.53;40.16
20656;BME280;10487;53.320;8.672;2023-04-06T13:35:12;101375.81;;;12.59;39.97
20656;BME280;10487;53.320;8.672;2023-04-06T13:38:14;101375.56;;;12.49;40.00
20656;BME280;10487;53.320;8.672;2023-04-06T13:41:20;101373.00;;;12.47;39.92
20656;BME280;10487;53.320;8.672;2023-04-06T13:44:24;101370.13;;;12.51;40.12
20656;BME280;10487;53.320;8.672;2023-04-06T13:47:26;101357.81;;;12.48;39.84
20656;BME280;10487;53.320;8.672;2023-04-06T13:50:28;101368.72;;;12.45;39.89
20656;BME280;10487;53.320;8.672;2023-04-06T13:53:30;101358.88;;;12.45;39.77
20656;BME280;10487;53.320;8.672;2023-04-06T13:56:32;101366.56;;;12.50;39.80
20656;BME280;10487;53.320;8.672;2023-04-06T13:59:37;101361.03;;;12.53;39.76
20656;BME280;10487;53.320;8.672;2023-04-06T14:02:39;101364.47;;;12.55;39.83
20656;BME280;10487;53.320;8.672;2023-04-06T14:05:41;101362.31;;;12.60;39.67
20656;BME280;10487;53.320;8.672;2023-04-06T14:08:43;101353.53;;;12.58;39.75
20656;BME280;10487;53.320;8.672;2023-04-06T14:11:44;101342.63;;;12.61;39.69
20656;BME280;10487;53.320;8.672;2023-04-06T14:14:46;101349.31;;;12.67;39.57
20656;BME280;10487;53.320;8.672;2023-04-06T14:17:48;101345.81;;;12.66;39.38
20656;BME280;10487;53.320;8.672;2023-04-06T14:20:55;101351.78;;;12.70;39.45
20656;BME280;10487;53.320;8.672;2023-04-06T14:23:57;101354.66;;;12.67;39.48
20656;BME280;10487;53.320;8.672;2023-04-06T14:27:00;101345.59;;;12.57;39.25
20656;BME280;10487;53.320;8.672;2023-04-06T14:30:02;101346.88;;;12.51;39.22
20656;BME280;10487;53.320;8.672;2023-04-06T14:33:04;101348.78;;;12.49;39.52
20656;BME280;10487;53.320;8.672;2023-04-06T14:36:06;101342.28;;;12.40;39.33
20656;BME280;10487;53.320;8.672;2023-04-06T14:39:08;101334.28;;;12.28;39.05
20656;BME280;10487;53.320;8.672;2023-04-06T14:42:11;101339.78;;;12.14;39.57
20656;BME280;10487;53.320;8.672;2023-04-06T14:45:12;101332.72;;;12.00;39.54
20656;BME280;10487;53.320;8.672;2023-04-06T14:48:14;101334.44;;;11.89;39.43
20656;BME280;10487;53.320;8.672;2023-04-06T14:51:17;101327.91;;;11.80;39.28
20656;BME280;10487;53.320;8.672;2023-04-06T14:54:18;101323.84;;;11.74;39.46
20656;BME280;10487;53.320;8.672;2023-04-06T14:57:20;101332.16;;;11.70;39.35
20656;BME280;10487;53.320;8.672;2023-04-06T15:00:21;101320.09;;;11.64;39.46
20656;BME280;10487;53.320;8.672;2023-04-06T15:03:24;101323.84;;;11.62;39.40
20656;BME280;10487;53.320;8.672;2023-04-06T15:06:27;101310.69;;;11.59;39.22
20656;BME280;10487;53.320;8.672;2023-04-06T15:09:28;101325.00;;;11.58;39.52
20656;BME280;10487;53.320;8.672;2023-04-06T15:12:30;101314.50;;;11.55;38.92
20656;BME280;10487;53.320;8.672;2023-04-06T15:15:33;101326.34;;;11.51;39.23
20656;BME280;10487;53.320;8.672;2023-04-06T15:18:35;101321.13;;;11.49;38.92
20656;BME280;10487;53.320;8.672;2023-04-06T15:21:36;101317.91;;;11.44;38.94
20656;BME280;10487;53.320;8.672;2023-04-06T15:24:38;101323.56;;;11.40;39.15
20656;BME280;10487;53.320;8.672;2023-04-06T15:27:39;101319.50;;;11.34;39.12
20656;BME280;10487;53.320;8.672;2023-04-06T15:30:41;101315.97;;;11.34;39.06
20656;BME280;10487;53.320;8.672;2023-04-06T15:33:43;101318.50;;;11.35;38.99
20656;BME280;10487;53.320;8.672;2023-04-06T15:36:45;101322.06;;;11.36;38.77
20656;BME280;10487;53.320;8.672;2023-04-06T15:39:47;101308.81;;;11.34;38.65
20656;BME280;10487;53.320;8.672;2023-04-06T15:42:48;101308.25;;;11.29;38.46
20656;BME280;10487;53.320;8.672;2023-04-06T15:45:51;101312.63;;;11.30;38.92
20656;BME280;10487;53.320;8.672;2023-04-06T15:48:54;101304.31;;;11.35;38.93
20656;BME280;10487;53.320;8.672;2023-04-06T15:51:56;101302.41;;;11.37;38.77
20656;BME280;10487;53.320;8.672;2023-04-06T15:54:57;101308.59;;;11.37;38.69
20656;BME280;10487;53.320;8.672;2023-04-06T15:57:59;101306.34;;;11.31;38.79
20656;BME280;10487;53.320;8.672;2023-04-06T16:01:10;101308.66;;;11.23;38.76
20656;BME280;10487;53.320;8.672;2023-04-06T16:04:12;101302.97;;;11.15;38.70